Time;durP1;ratioP1;P1;durP2;ratioP2;P2;SDS_P1;SDS_P2;PMS_P1;PMS_P2;Temp;Humidity;BMP_temperature;BMP_pressure;BME280_temperature;BME280_humidity;BME280_pressure;Samples;Min_cycle;Max_cycle;Signal;HPM_P1;HPM_P2
2021/05/19 00:01:36;;;;;;;1.37;1.27;;;10.90;99.90;;;;;;5070654;28;20782;-81
2021/05/19 00:04:03;;;;;;;0.70;0.50;;;10.90;99.90;;;;;;5062683;28;20930;-81
2021/05/19 00:06:28;;;;;;;0.70;0.50;;;10.80;99.90;;;;;;5078525;28;20466;-81
2021/05/19 00:08:54;;;;;;;0.70;0.60;;;10.90;99.90;;;;;;5069690;28;20882;-80
2021/05/19 00:11:19;;;;;;;0.70;0.50;;;10.90;99.90;;;;;;5080619;28;20182;-81
2021/05/19 00:13:45;;;;;;;0.70;0.60;;;11.00;99.90;;;;;;5047189;28;20245;-82
2021/05/19 00:16:11;;;;;;;0.70;0.50;;;11.00;99.90;;;;;;5060803;28;20231;-80
2021/05/19 00:18:38;;;;;;;0.70;0.50;;;10.90;99.90;;;;;;5070949;28;20433;-80
2021/05/19 00:21:05;;;;;;;0.70;0.50;;;10.80;99.90;;;;;;5064663;28;20188;-80
2021/05/19 00:23:30;;;;;;;0.70;0.63;;;10.90;99.90;;;;;;5055770;28;20475;-80
2021/05/19 00:25:56;;;;;;;0.70;0.53;;;10.90;99.90;;;;;;5081036;28;20460;-81
2021/05/19 00:28:22;;;;;;;0.70;0.50;;;10.90;99.90;;;;;;5059680;28;20187;-80
2021/05/19 00:30:52;;;;;;;0.80;0.60;;;10.90;99.90;;;;;;5074036;28;20212;-82
2021/05/19 00:33:18;;;;;;;0.70;0.60;;;10.90;99.90;;;;;;5069020;28;20847;-81
2021/05/19 00:35:44;;;;;;;0.80;0.73;;;11.00;99.90;;;;;;5075165;28;20531;-80
2021/05/19 00:38:09;;;;;;;1.97;0.97;;;11.00;99.90;;;;;;5075323;28;20242;-81
2021/05/19 00:40:35;;;;;;;4.30;0.80;;;11.10;99.90;;;;;;5077342;28;20181;-80
2021/05/19 00:43:00;;;;;;;0.70;0.50;;;11.10;99.90;;;;;;5054096;28;20197;-80
2021/05/19 00:45:26;;;;;;;0.70;0.50;;;11.10;99.90;;;;;;5077336;28;20185;-81
2021/05/19 00:47:52;;;;;;;0.70;0.50;;;11.10;99.90;;;;;;5065479;28;20191;-80
2021/05/19 00:50:24;;;;;;;0.70;0.50;;;11.10;99.90;;;;;;5069754;28;20452;-82
2021/05/19 00:52:50;;;;;;;0.80;0.70;;;11.10;99.90;;;;;;5078952;28;20181;-80
2021/05/19 00:55:16;;;;;;;0.70;0.50;;;11.10;99.90;;;;;;5073630;28;20555;-81
2021/05/19 00:57:43;;;;;;;0.70;0.50;;;11.10;99.90;;;;;;5074738;28;20591;-81
2021/05/19 01:00:12;;;;;;;0.70;0.50;;;11.10;99.90;;;;;;5044165;28;20909;-81
2021/05/19 01:02:38;;;;;;;0.70;0.60;;;11.10;99.90;;;;;;5069312;28;20442;-81
2021/05/19 01:05:17;;;;;;;0.70;0.50;;;11.10;99.90;;;;;;5072796;28;20489;-80
2021/05/19 01:09:34;;;;;;;0.80;0.60;;;11.20;99.90;;;;;;5078169;28;20467;-81
2021/05/19 01:10:28;;;;;;;0.80;0.70;;;11.20;99.90;;;;;;5069686;28;20438;-81
2021/05/19 01:12:54;;;;;;;0.70;0.50;;;11.20;99.90;;;;;;5044822;28;20444;-80
2021/05/19 01:15:20;;;;;;;0.80;0.70;;;11.20;99.90;;;;;;5060466;28;20198;-80
2021/05/19 01:17:46;;;;;;;0.70;0.50;;;11.10;99.90;;;;;;5059490;28;20248;-80
2021/05/19 01:20:13;;;;;;;0.80;0.63;;;11.10;99.90;;;;;;5035987;28;20200;-80
2021/05/19 01:22:39;;;;;;;0.70;0.50;;;11.10;99.90;;;;;;5061331;28;20430;-82
2021/05/19 01:25:05;;;;;;;0.70;0.50;;;11.20;99.90;;;;;;5056427;28;20532;-80
2021/05/19 01:27:30;;;;;;;0.70;0.50;;;11.20;99.90;;;;;;5040438;28;20197;-81
2021/05/19 01:29:58;;;;;;;0.70;0.50;;;11.20;99.90;;;;;;5068798;28;20524;-80
2021/05/19 01:32:24;;;;;;;0.70;0.50;;;11.20;99.90;;;;;;5038434;28;20243;-80
2021/05/19 01:34:50;;;;;;;0.80;0.70;;;11.30;99.90;;;;;;5072499;28;20511;-82
2021/05/19 01:37:17;;;;;;;0.70;0.50;;;11.30;99.90;;;;;;5065525;28;20816;-81
2021/05/19 01:39:44;;;;;;;1.00;0.93;;;11.40;99.90;;;;;;5072606;28;20514;-81
2021/05/19 01:42:10;;;;;;;0.70;0.50;;;11.50;99.90;;;;;;5073024;28;20479;-82
2021/05/19 01:44:37;;;;;;;0.70;0.50;;;11.60;99.90;;;;;;5037855;28;20775;-81
2021/05/19 01:47:04;;;;;;;0.70;0.50;;;11.60;99.90;;;;;;5041813;28;20464;-80
2021/05/19 01:49:31;;;;;;;0.70;0.50;;;11.60;99.90;;;;;;5055957;28;20479;-81
2021/05/19 01:52:04;;;;;;;0.70;0.53;;;11.70;99.90;;;;;;5060123;28;20439;-82
2021/05/19 01:54:30;;;;;;;0.70;0.50;;;11.70;99.90;;;;;;5076019;28;20829;-82
2021/05/19 01:56:56;;;;;;;0.70;0.50;;;11.60;99.90;;;;;;5068695;28;20468;-81
2021/05/19 01:59:22;;;;;;;0.70;0.57;;;11.60;99.90;;;;;;5073828;28;20170;-80
2021/05/19 02:01:48;;;;;;;0.70;0.50;;;11.60;99.90;;;;;;5068484;28;20906;-81
2021/05/19 02:04:16;;;;;;;0.70;0.50;;;11.60;99.90;;;;;;5071654;28;20177;-81
2021/05/19 02:06:48;;;;;;;0.70;0.50;;;11.60;99.90;;;;;;5060469;28;20201;-81
2021/05/19 02:09:15;;;;;;;4.20;1.70;;;11.60;99.90;;;;;;5059484;28;20445;-81
2021/05/19 02:11:40;;;;;;;0.73;0.60;;;11.60;99.90;;;;;;5065457;28;20436;-82
2021/05/19 02:14:06;;;;;;;1.50;1.40;;;11.60;99.90;;;;;;5059185;28;20440;-82
2021/05/19 02:16:32;;;;;;;0.70;0.50;;;11.60;99.90;;;;;;5066716;28;20206;-80
2021/05/19 02:18:57;;;;;;;0.70;0.47;;;11.60;99.90;;;;;;5062278;28;20182;-80
2021/05/19 02:21:23;;;;;;;0.70;0.70;;;11.50;99.90;;;;;;5064707;28;20701;-82
2021/05/19 02:23:49;;;;;;;0.70;0.50;;;11.50;99.90;;;;;;5077370;28;20450;-82
2021/05/19 02:26:15;;;;;;;0.70;0.50;;;11.60;99.90;;;;;;5074573;28;20213;-81
2021/05/19 02:28:41;;;;;;;0.70;0.50;;;11.50;99.90;;;;;;5028613;28;20191;-81
2021/05/19 02:31:12;;;;;;;0.70;0.50;;;11.30;99.90;;;;;;5060416;28;20424;-81
2021/05/19 02:33:38;;;;;;;0.70;0.50;;;11.20;99.90;;;;;;5077133;28;20182;-81
2021/05/19 02:36:05;;;;;;;0.80;0.60;;;11.20;99.90;;;;;;5075559;28;20474;-81
2021/05/19 02:38:34;;;;;;;0.70;0.50;;;11.10;99.90;;;;;;5069806;28;20416;-81
2021/05/19 02:41:31;;;;;;;1.67;1.57;;;11.00;99.90;;;;;;5080833;28;20435;-81
2021/05/19 02:44:04;;;;;;;1.37;0.60;;;11.00;99.90;;;;;;5073091;28;20439;-81
2021/05/19 02:46:33;;;;;;;0.70;0.50;;;11.00;99.90;;;;;;5053248;28;20536;-81
2021/05/19 02:49:02;;;;;;;0.70;0.50;;;10.90;99.90;;;;;;5069359;28;20460;-81
2021/05/19 02:51:36;;;;;;;0.70;0.50;;;10.80;99.90;;;;;;5083755;28;20444;-81
2021/05/19 02:54:04;;;;;;;0.70;0.50;;;10.80;99.90;;;;;;5075492;28;20512;-80
2021/05/19 02:56:30;;;;;;;0.70;0.50;;;10.70;99.90;;;;;;5055933;28;20463;-80
2021/05/19 02:58:56;;;;;;;0.70;0.50;;;10.70;99.90;;;;;;5069964;28;20479;-81
2021/05/19 03:01:21;;;;;;;0.70;0.50;;;10.70;99.90;;;;;;5071298;28;20174;-79
2021/05/19 03:03:47;;;;;;;1.20;1.10;;;10.70;99.90;;;;;;5085934;28;20181;-80
2021/05/19 03:06:13;;;;;;;0.70;0.50;;;10.80;99.90;;;;;;5086800;28;21499;-80
2021/05/19 03:08:39;;;;;;;0.90;0.80;;;10.70;99.90;;;;;;5058403;28;20202;-80
2021/05/19 03:11:06;;;;;;;0.80;0.70;;;10.70;99.90;;;;;;5082118;28;20474;-80
2021/05/19 03:13:33;;;;;;;0.70;0.50;;;10.60;99.90;;;;;;5069629;28;20182;-79
2021/05/19 03:15:59;;;;;;;0.70;0.50;;;10.70;99.90;;;;;;5083711;28;20478;-79
2021/05/19 03:18:25;;;;;;;0.70;0.50;;;10.70;99.90;;;;;;5087418;28;20442;-78
2021/05/19 03:20:50;;;;;;;0.70;0.50;;;10.80;99.90;;;;;;5088499;28;20422;-77
2021/05/19 03:23:16;;;;;;;0.70;0.50;;;10.80;99.90;;;;;;5089255;28;20208;-80
2021/05/19 03:25:42;;;;;;;0.70;0.60;;;10.90;99.90;;;;;;5090543;28;20230;-81
2021/05/19 03:28:08;;;;;;;0.80;0.70;;;10.90;99.90;;;;;;5083613;28;20201;-81
2021/05/19 03:30:34;;;;;;;0.70;0.50;;;10.90;99.90;;;;;;5077039;28;20455;-79
2021/05/19 03:32:59;;;;;;;0.70;0.50;;;10.80;99.90;;;;;;5087839;28;20174;-81
2021/05/19 03:35:25;;;;;;;0.70;0.50;;;10.80;99.90;;;;;;5086797;28;20186;-79
2021/05/19 03:37:51;;;;;;;0.70;0.50;;;10.80;99.90;;;;;;5086614;28;20205;-81
2021/05/19 03:40:17;;;;;;;0.70;0.50;;;10.70;99.90;;;;;;5083432;28;20280;-80
2021/05/19 03:42:43;;;;;;;0.70;0.50;;;10.70;99.90;;;;;;5064794;28;20648;-81
2021/05/19 03:45:12;;;;;;;0.70;0.50;;;10.60;99.90;;;;;;5076335;28;20409;-81
2021/05/19 03:47:38;;;;;;;0.70;0.50;;;10.60;99.90;;;;;;5076192;28;20440;-81
2021/05/19 03:50:06;;;;;;;0.70;0.50;;;10.60;99.90;;;;;;5077089;28;20535;-80
2021/05/19 03:52:32;;;;;;;0.70;0.50;;;10.70;99.90;;;;;;5076373;28;20179;-81
2021/05/19 03:54:59;;;;;;;0.70;0.50;;;10.70;99.90;;;;;;5074065;28;20468;-81
2021/05/19 03:57:25;;;;;;;0.70;0.50;;;10.80;99.90;;;;;;5067039;28;20460;-81
2021/05/19 03:59:50;;;;;;;0.70;0.50;;;10.60;99.90;;;;;;5059147;28;20409;-81
2021/05/19 04:02:16;;;;;;;0.70;0.50;;;10.60;99.90;;;;;;5067804;28;20225;-81
2021/05/19 04:04:42;;;;;;;0.70;0.50;;;10.60;99.90;;;;;;5065017;28;20174;-80
2021/05/19 04:07:08;;;;;;;0.70;0.50;;;10.40;99.90;;;;;;5076330;28;20206;-81
2021/05/19 04:09:33;;;;;;;0.70;0.50;;;10.40;99.90;;;;;;5073564;28;20173;-81
2021/05/19 04:11:59;;;;;;;0.70;0.50;;;10.40;99.90;;;;;;5079382;28;20484;-81
2021/05/19 04:14:25;;;;;;;2.50;1.50;;;10.30;99.90;;;;;;5062779;28;20168;-81
2021/05/19 04:16:53;;;;;;;0.70;0.50;;;10.30;99.90;;;;;;5078517;28;20204;-81
2021/05/19 04:19:21;;;;;;;0.70;0.50;;;10.20;99.90;;;;;;5079952;28;20166;-81
2021/05/19 04:21:52;;;;;;;0.70;0.50;;;10.30;99.90;;;;;;5077228;28;20460;-81
2021/05/19 04:24:20;;;;;;;0.70;0.50;;;10.20;99.90;;;;;;5072408;28;20441;-80
2021/05/19 04:26:45;;;;;;;0.70;0.50;;;10.30;99.90;;;;;;5075398;28;20547;-81
2021/05/19 04:29:14;;;;;;;0.70;0.50;;;10.30;99.90;;;;;;5079421;28;20448;-80
2021/05/19 04:31:42;;;;;;;0.70;0.50;;;10.30;99.90;;;;;;5071733;28;20175;-81
2021/05/19 04:34:08;;;;;;;0.70;0.50;;;10.20;99.90;;;;;;5061145;28;20436;-81
2021/05/19 04:36:34;;;;;;;0.70;0.50;;;10.30;99.90;;;;;;5051530;28;20464;-82
2021/05/19 04:39:01;;;;;;;0.70;0.50;;;10.30;99.90;;;;;;5076884;28;20256;-81
2021/05/19 04:41:29;;;;;;;0.70;0.50;;;10.30;99.90;;;;;;5081238;28;20182;-81
2021/05/19 04:43:54;;;;;;;0.70;0.50;;;10.30;99.90;;;;;;5083507;28;20408;-81
2021/05/19 04:46:20;;;;;;;0.70;0.50;;;10.30;99.90;;;;;;5079510;28;20503;-81
2021/05/19 04:48:46;;;;;;;0.70;0.50;;;10.40;99.90;;;;;;5081800;28;20174;-82
2021/05/19 04:51:12;;;;;;;0.70;0.50;;;10.40;99.90;;;;;;5079113;28;20437;-81
2021/05/19 04:53:38;;;;;;;0.70;0.50;;;10.50;99.90;;;;;;5080620;28;20197;-80
2021/05/19 04:56:04;;;;;;;0.70;0.50;;;10.50;99.90;;;;;;5082774;28;20213;-80
2021/05/19 04:58:29;;;;;;;0.70;0.50;;;10.50;99.90;;;;;;5082835;28;20241;-79
2021/05/19 05:00:55;;;;;;;0.70;0.50;;;10.50;99.90;;;;;;5082250;28;20450;-81
2021/05/19 05:03:21;;;;;;;0.70;0.50;;;10.50;99.90;;;;;;5054530;28;20211;-81
2021/05/19 05:05:47;;;;;;;1.00;0.90;;;10.50;99.90;;;;;;5080509;28;20506;-81
2021/05/19 05:08:13;;;;;;;0.70;0.50;;;10.50;99.90;;;;;;5075441;28;20183;-81
2021/05/19 05:10:39;;;;;;;0.70;0.50;;;10.50;99.90;;;;;;5074822;28;20516;-81
2021/05/19 05:13:05;;;;;;;0.70;0.50;;;10.50;99.90;;;;;;5070058;28;20420;-81
2021/05/19 05:15:31;;;;;;;0.70;0.50;;;10.60;99.90;;;;;;5082657;28;20479;-81
2021/05/19 05:17:57;;;;;;;0.70;0.50;;;10.60;99.90;;;;;;5067024;28;20198;-81
2021/05/19 05:20:24;;;;;;;0.70;0.50;;;10.80;99.90;;;;;;5076351;28;20506;-81
2021/05/19 05:22:50;;;;;;;0.70;0.50;;;10.90;99.90;;;;;;5069915;28;20185;-82
2021/05/19 05:25:17;;;;;;;0.70;0.50;;;11.10;99.90;;;;;;5064532;28;20550;-81
2021/05/19 05:27:46;;;;;;;0.70;0.50;;;11.30;99.90;;;;;;5079715;28;20420;-81
2021/05/19 05:30:13;;;;;;;0.70;0.50;;;11.30;99.90;;;;;;5070129;28;20437;-80
2021/05/19 05:32:38;;;;;;;0.70;0.50;;;11.20;99.90;;;;;;5074221;28;20463;-81
2021/05/19 05:35:05;;;;;;;0.70;0.50;;;11.30;99.90;;;;;;5072038;28;20436;-80
2021/05/19 05:37:30;;;;;;;0.70;0.50;;;11.20;99.90;;;;;;5076058;28;20202;-81
2021/05/19 05:39:56;;;;;;;0.70;0.50;;;11.10;99.90;;;;;;5072823;28;20429;-81
2021/05/19 05:42:22;;;;;;;1.13;1.03;;;11.10;99.90;;;;;;5069171;28;20198;-81
2021/05/19 05:44:47;;;;;;;0.70;0.50;;;11.20;99.90;;;;;;5067616;28;20180;-81
2021/05/19 05:47:13;;;;;;;0.70;0.50;;;11.40;99.90;;;;;;5082559;28;20220;-81
2021/05/19 05:49:41;;;;;;;0.70;0.60;;;11.60;99.90;;;;;;5079306;28;20201;-81
2021/05/19 05:52:07;;;;;;;0.70;0.50;;;11.80;99.90;;;;;;5064645;28;20200;-81
2021/05/19 05:54:33;;;;;;;0.70;0.50;;;12.00;99.90;;;;;;5065928;28;20424;-80
2021/05/19 05:56:58;;;;;;;0.70;0.50;;;11.90;99.90;;;;;;5063929;28;20667;-80
2021/05/19 05:59:27;;;;;;;0.70;0.50;;;12.00;99.90;;;;;;5068533;28;20171;-80
2021/05/19 06:01:53;;;;;;;0.70;0.50;;;12.10;99.90;;;;;;5079690;28;20175;-80
2021/05/19 06:04:19;;;;;;;0.70;0.50;;;12.40;99.90;;;;;;5067973;28;20782;-81
2021/05/19 06:06:45;;;;;;;0.70;0.50;;;12.40;99.90;;;;;;5066400;28;20448;-81
2021/05/19 06:09:13;;;;;;;0.70;0.50;;;12.70;99.90;;;;;;5069546;28;20204;-81
2021/05/19 06:11:41;;;;;;;0.70;0.50;;;12.70;99.90;;;;;;5076260;28;20192;-81
2021/05/19 06:14:07;;;;;;;0.70;0.50;;;12.90;99.90;;;;;;5080058;28;20919;-81
2021/05/19 06:16:33;;;;;;;0.70;0.50;;;13.00;99.90;;;;;;5072264;28;20555;-82
2021/05/19 06:18:59;;;;;;;0.70;0.50;;;13.00;99.90;;;;;;5078860;28;20433;-81
2021/05/19 06:21:25;;;;;;;0.70;0.50;;;13.10;99.90;;;;;;5077564;28;20416;-81
2021/05/19 06:23:51;;;;;;;0.70;0.50;;;13.40;99.90;;;;;;5076515;28;20182;-81
2021/05/19 06:26:21;;;;;;;0.70;0.50;;;13.70;99.90;;;;;;5056367;28;20463;-82
2021/05/19 06:28:55;;;;;;;0.70;0.50;;;13.60;99.90;;;;;;5045585;28;20175;-80
2021/05/19 06:31:23;;;;;;;0.70;0.50;;;13.80;99.90;;;;;;5048262;28;20437;-80
2021/05/19 06:33:52;;;;;;;0.70;0.50;;;13.90;99.90;;;;;;5048288;28;20428;-80
2021/05/19 06:36:18;;;;;;;0.70;0.50;;;14.30;99.90;;;;;;5070391;28;20465;-80
2021/05/19 06:39:04;;;;;;;1.37;0.70;;;14.50;99.90;;;;;;5060660;28;20437;-77
2021/05/19 06:41:46;;;;;;;0.70;0.50;;;15.00;99.90;;;;;;5057280;28;20453;-77
2021/05/19 06:44:19;;;;;;;0.70;0.50;;;15.40;99.90;;;;;;5051287;28;20432;-78
2021/05/19 06:46:50;;;;;;;0.70;0.50;;;15.80;99.90;;;;;;5057968;28;20810;-78
2021/05/19 06:49:16;;;;;;;0.70;0.60;;;16.30;99.90;;;;;;5044210;28;20475;-77
2021/05/19 06:51:47;;;;;;;0.70;0.50;;;16.50;99.90;;;;;;5079773;28;20484;-78
2021/05/19 06:54:16;;;;;;;0.70;0.50;;;16.90;99.90;;;;;;5077457;28;20433;-77
2021/05/19 06:56:47;;;;;;;0.70;0.50;;;17.50;99.90;;;;;;5078424;28;20501;-77
2021/05/19 06:59:17;;;;;;;0.70;0.50;;;17.50;99.90;;;;;;5059240;28;20427;-77
2021/05/19 07:01:47;;;;;;;0.70;0.50;;;17.60;99.90;;;;;;5068835;28;20428;-78
2021/05/19 07:04:14;;;;;;;0.70;0.50;;;17.30;99.90;;;;;;5073096;28;20429;-78
2021/05/19 07:06:46;;;;;;;1.13;0.73;;;17.10;99.90;;;;;;5069205;28;20461;-77
2021/05/19 07:09:18;;;;;;;0.80;0.70;;;17.00;99.90;;;;;;5057362;28;20465;-77
2021/05/19 07:11:51;;;;;;;0.70;0.50;;;17.40;99.90;;;;;;5053232;28;21008;-78
2021/05/19 07:14:27;;;;;;;0.70;0.50;;;17.80;99.90;;;;;;5048258;28;20790;-78
2021/05/19 07:16:58;;;;;;;0.70;0.50;;;18.30;99.90;;;;;;5058091;28;20456;-78
2021/05/19 07:19:26;;;;;;;0.70;0.50;;;18.80;99.90;;;;;;5067700;28;20433;-77
2021/05/19 07:21:54;;;;;;;0.70;0.50;;;19.20;99.90;;;;;;5063564;28;20433;-77
2021/05/19 07:24:24;;;;;;;0.70;0.50;;;19.30;99.90;;;;;;5039663;28;20410;-77
2021/05/19 07:26:59;;;;;;;0.70;0.50;;;19.50;99.90;;;;;;5068380;28;20449;-78
2021/05/19 07:29:30;;;;;;;0.70;0.50;;;19.90;99.90;;;;;;5040426;28;20443;-77
2021/05/19 07:31:59;;;;;;;0.70;0.50;;;19.90;99.90;;;;;;5063317;28;20448;-77
2021/05/19 07:34:25;;;;;;;0.70;0.50;;;19.10;99.90;;;;;;5052256;28;20440;-78
2021/05/19 07:36:51;;;;;;;0.70;0.50;;;18.60;99.90;;;;;;5072259;28;20565;-77
2021/05/19 07:39:18;;;;;;;0.70;0.50;;;18.90;99.90;;;;;;5047698;28;20464;-77
2021/05/19 07:41:44;;;;;;;0.70;0.50;;;18.60;99.90;;;;;;5073408;28;20853;-77
2021/05/19 07:44:10;;;;;;;0.80;0.70;;;19.00;99.90;;;;;;5066756;28;20429;-77
2021/05/19 07:46:38;;;;;;;0.70;0.50;;;19.10;99.90;;;;;;5064414;28;20304;-77
2021/05/19 07:49:04;;;;;;;0.70;0.50;;;18.70;99.90;;;;;;5057376;28;20443;-77
2021/05/19 07:51:30;;;;;;;0.70;0.50;;;18.50;99.90;;;;;;5074382;28;20429;-78
2021/05/19 07:53:55;;;;;;;0.70;0.50;;;18.20;99.90;;;;;;5059953;28;20436;-77
2021/05/19 07:59:08;;;;;;;0.70;0.50;;;18.00;99.90;;;;;;5079529;28;20170;-78
2021/05/19 08:04:08;;;;;;;0.70;0.50;;;17.60;99.90;;;;;;5062379;28;20903;-78
2021/05/19 08:06:45;;;;;;;0.70;0.50;;;17.10;99.90;;;;;;5075950;28;20444;-77
2021/05/19 08:09:10;;;;;;;0.70;0.50;;;16.90;99.90;;;;;;5057113;28;20486;-78
2021/05/19 08:11:41;;;;;;;0.70;0.50;;;17.00;99.90;;;;;;5064267;28;20424;-77
2021/05/19 08:14:14;;;;;;;0.70;0.50;;;17.10;99.90;;;;;;5069156;28;20232;-77
2021/05/19 08:16:44;;;;;;;0.70;0.50;;;17.40;99.90;;;;;;5071073;28;20892;-78
2021/05/19 08:19:10;;;;;;;0.70;0.50;;;17.20;99.90;;;;;;5067615;28;20423;-78
2021/05/19 08:21:37;;;;;;;0.70;0.50;;;17.20;99.90;;;;;;5074055;28;20428;-78
2021/05/19 08:24:06;;;;;;;0.70;0.50;;;16.90;99.90;;;;;;5056474;28;20175;-78
2021/05/19 08:26:32;;;;;;;0.70;0.50;;;16.50;99.90;;;;;;5052137;28;20438;-78
2021/05/19 08:28:57;;;;;;;0.70;0.50;;;16.60;99.90;;;;;;5038203;28;20566;-78
2021/05/19 08:31:23;;;;;;;0.70;0.50;;;16.60;99.90;;;;;;5072786;28;20604;-78
2021/05/19 08:33:49;;;;;;;0.70;0.50;;;16.70;99.90;;;;;;5040631;28;20182;-77
2021/05/19 08:36:16;;;;;;;0.70;0.50;;;16.60;99.90;;;;;;5044111;28;20585;-78
2021/05/19 08:38:43;;;;;;;0.70;0.50;;;16.20;99.90;;;;;;5074614;28;20416;-77
2021/05/19 08:41:09;;;;;;;0.70;0.50;;;16.20;99.90;;;;;;5067527;28;20786;-78
2021/05/19 08:43:35;;;;;;;0.70;0.50;;;16.00;99.90;;;;;;5044618;28;20941;-78
2021/05/19 08:46:08;;;;;;;0.70;0.50;;;16.00;99.90;;;;;;5074232;28;20462;-77
2021/05/19 08:48:35;;;;;;;0.70;0.50;;;16.10;99.90;;;;;;5062373;28;20689;-78
2021/05/19 08:51:01;;;;;;;0.70;0.50;;;15.80;99.90;;;;;;5064165;28;20441;-76
2021/05/19 08:53:27;;;;;;;0.70;0.50;;;15.60;99.90;;;;;;5054555;28;20459;-77
2021/05/19 08:55:54;;;;;;;0.70;0.50;;;15.60;99.90;;;;;;5067516;28;20456;-77
2021/05/19 08:58:20;;;;;;;0.70;0.50;;;15.30;99.90;;;;;;5069634;28;20440;-78
2021/05/19 09:00:46;;;;;;;0.70;0.50;;;15.50;99.90;;;;;;5056042;28;20443;-78
2021/05/19 09:03:14;;;;;;;0.70;0.50;;;15.40;99.90;;;;;;5046822;28;20693;-77
2021/05/19 09:05:45;;;;;;;0.70;0.50;;;15.40;99.90;;;;;;5071614;28;20203;-77
2021/05/19 09:08:17;;;;;;;0.70;0.50;;;15.30;99.90;;;;;;5051523;28;20825;-77
2021/05/19 09:10:56;;;;;;;0.70;0.50;;;15.40;99.90;;;;;;5039864;28;20472;-79
2021/05/19 09:13:44;;;;;;;0.70;0.50;;;15.60;99.90;;;;;;5058827;28;20439;-77
2021/05/19 09:16:10;;;;;;;0.87;0.87;;;16.10;99.90;;;;;;5059832;28;20463;-78
2021/05/19 09:18:52;;;;;;;0.70;0.50;;;16.10;99.90;;;;;;5052407;28;20421;-77
2021/05/19 09:21:39;;;;;;;0.70;0.50;;;16.00;99.90;;;;;;5061100;28;20205;-79
2021/05/19 09:24:11;;;;;;;0.70;0.50;;;15.90;99.90;;;;;;5060035;28;20507;-77
2021/05/19 09:26:55;;;;;;;0.70;0.50;;;15.90;99.90;;;;;;5070842;28;20448;-77
2021/05/19 09:29:23;;;;;;;0.70;0.50;;;16.50;99.90;;;;;;5037086;28;20425;-78
2021/05/19 09:31:50;;;;;;;0.70;0.50;;;16.80;99.90;;;;;;5068350;28;20436;-78
2021/05/19 09:34:24;;;;;;;0.70;0.50;;;17.50;99.90;;;;;;5056082;28;20444;-78
2021/05/19 09:36:50;;;;;;;0.70;0.50;;;18.60;99.90;;;;;;5070909;28;20475;-77
2021/05/19 09:39:15;;;;;;;0.70;0.50;;;19.30;99.90;;;;;;5045206;28;20438;-77
2021/05/19 09:41:41;;;;;;;0.80;0.50;;;19.80;99.90;;;;;;5060936;28;20242;-76
2021/05/19 09:44:08;;;;;;;0.70;0.50;;;19.90;99.90;;;;;;5068541;28;20178;-76
2021/05/19 09:46:40;;;;;;;0.70;0.50;;;20.00;99.90;;;;;;5074298;28;20255;-76
2021/05/19 09:49:26;;;;;;;0.70;0.50;;;20.70;99.90;;;;;;5072380;28;20448;-75
2021/05/19 09:51:54;;;;;;;0.70;0.50;;;21.00;99.90;;;;;;5056503;28;20444;-78
2021/05/19 09:54:39;;;;;;;0.70;0.50;;;21.60;99.90;;;;;;5076639;28;20456;-78
2021/05/19 09:57:07;;;;;;;0.80;0.50;;;21.20;99.90;;;;;;5074930;28;20460;-78
2021/05/19 09:59:34;;;;;;;0.70;0.50;;;20.70;96.10;;;;;;5052992;28;20522;-78
2021/05/19 10:02:01;;;;;;;1.63;1.33;;;20.20;97.40;;;;;;5071413;28;20902;-77
2021/05/19 10:04:31;;;;;;;0.70;0.50;;;20.50;99.70;;;;;;5075057;28;20424;-76
2021/05/19 10:06:57;;;;;;;0.70;0.50;;;21.00;99.90;;;;;;5056927;28;20530;-76
2021/05/19 10:09:27;;;;;;;0.70;0.50;;;20.80;99.30;;;;;;5074903;28;20407;-76
2021/05/19 10:11:53;;;;;;;0.73;0.50;;;20.80;99.90;;;;;;5071350;28;20491;-76
2021/05/19 10:14:22;;;;;;;0.70;0.50;;;21.10;99.90;;;;;;5071179;28;21007;-76
2021/05/19 10:16:52;;;;;;;0.80;0.50;;;21.30;99.70;;;;;;5071844;28;20513;-76
2021/05/19 10:19:31;;;;;;;0.80;0.50;;;22.10;99.90;;;;;;5071098;28;20486;-74
2021/05/19 10:21:59;;;;;;;0.70;0.50;;;21.80;94.80;;;;;;5073224;28;20458;-76
2021/05/19 10:27:26;;;;;;;0.70;0.50;;;22.10;99.90;;;;;;5072825;28;20501;-76
2021/05/19 10:29:53;;;;;;;0.70;0.50;;;22.50;92.80;;;;;;5054283;28;20419;-76
2021/05/19 10:32:21;;;;;;;0.80;0.50;;;22.70;92.10;;;;;;5070576;28;20446;-76
2021/05/19 10:34:52;;;;;;;0.80;0.50;;;23.10;83.90;;;;;;5071640;28;20412;-75
2021/05/19 10:37:27;;;;;;;0.80;0.50;;;23.40;79.20;;;;;;5072012;28;20455;-75
2021/05/19 10:40:13;;;;;;;0.80;0.50;;;22.80;78.00;;;;;;5071095;28;20400;-75
2021/05/19 10:42:43;;;;;;;0.80;0.50;;;23.50;81.30;;;;;;5057178;28;20431;-75
2021/05/19 10:45:15;;;;;;;0.80;0.50;;;23.00;74.00;;;;;;5053990;28;20416;-75
2021/05/19 10:47:46;;;;;;;0.80;0.50;;;23.10;75.90;;;;;;5072025;28;20405;-76
2021/05/19 11:01:12;;;;;;;0.80;0.50;;;20.40;87.30;;;;;;5077292;28;20809;-75
2021/05/19 11:03:39;;;;;;;0.70;0.50;;;19.20;90.90;;;;;;5075600;28;20437;-78
2021/05/19 11:06:10;;;;;;;0.80;0.50;;;18.90;94.70;;;;;;5058242;28;20526;-75
2021/05/19 11:08:37;;;;;;;0.70;0.50;;;18.60;94.50;;;;;;5055524;28;20405;-76
2021/05/19 11:11:17;;;;;;;0.70;0.50;;;18.90;99.00;;;;;;5054469;28;20413;-78
2021/05/19 11:13:55;;;;;;;0.70;0.50;;;18.80;98.40;;;;;;5063963;28;20420;-77
2021/05/19 11:16:26;;;;;;;0.70;0.50;;;19.20;99.90;;;;;;5073851;28;20460;-76
2021/05/19 11:21:25;;;;;;;0.70;0.50;;;20.20;95.20;;;;;;5076139;28;20427;-77
2021/05/19 11:24:07;;;;;;;0.70;0.50;;;20.10;93.60;;;;;;5074634;28;20890;-78
2021/05/19 11:26:44;;;;;;;0.70;0.50;;;20.20;95.50;;;;;;5074123;28;20436;-76
2021/05/19 11:29:12;;;;;;;0.77;0.50;;;20.60;94.50;;;;;;5073062;28;20732;-77
2021/05/19 11:31:41;;;;;;;0.70;0.50;;;20.80;93.90;;;;;;5074871;28;20404;-76
2021/05/19 11:34:08;;;;;;;0.80;0.50;;;20.40;93.90;;;;;;5056333;28;20420;-77
2021/05/19 11:36:55;;;;;;;0.73;0.50;;;20.20;93.40;;;;;;5073688;28;20529;-77
2021/05/19 11:39:38;;;;;;;0.70;0.50;;;19.80;96.50;;;;;;5069921;28;20532;-78
2021/05/19 11:42:12;;;;;;;0.73;0.50;;;19.10;98.00;;;;;;5074094;28;20397;-77
2021/05/19 11:44:39;;;;;;;0.70;0.50;;;19.20;99.90;;;;;;5074120;28;20435;-76
2021/05/19 11:47:06;;;;;;;0.70;0.50;;;20.00;99.90;;;;;;5056026;28;20432;-76
2021/05/19 11:49:32;;;;;;;0.73;0.50;;;20.90;98.50;;;;;;5071940;28;20444;-76
2021/05/19 11:51:58;;;;;;;0.80;0.50;;;20.90;88.40;;;;;;5056334;28;20437;-75
2021/05/19 11:54:24;;;;;;;0.70;0.50;;;20.50;85.70;;;;;;5066863;28;20428;-76
2021/05/19 11:56:57;;;;;;;0.70;0.50;;;20.10;90.00;;;;;;5075922;28;20467;-76
2021/05/19 11:59:26;;;;;;;0.70;0.50;;;19.90;91.60;;;;;;5069372;28;20171;-76
2021/05/19 12:02:08;;;;;;;0.70;0.50;;;19.90;95.10;;;;;;5046438;28;20445;-77
2021/05/19 12:04:36;;;;;;;0.70;0.50;;;19.40;97.20;;;;;;5055272;28;20886;-77
2021/05/19 12:07:05;;;;;;;0.70;0.50;;;18.70;97.60;;;;;;5057134;28;20430;-77
2021/05/19 12:09:35;;;;;;;0.70;0.50;;;18.40;99.90;;;;;;5071822;28;20929;-78
2021/05/19 12:12:10;;;;;;;0.77;0.50;;;18.10;99.90;;;;;;5056079;28;20953;-77
2021/05/19 12:14:36;;;;;;;0.70;0.50;;;17.10;99.90;;;;;;5038992;28;20431;-74
2021/05/19 12:17:03;;;;;;;0.70;0.50;;;16.90;99.90;;;;;;5053447;28;20457;-74
2021/05/19 12:19:35;;;;;;;0.70;0.50;;;16.40;99.90;;;;;;5053117;28;20925;-74
2021/05/19 12:22:11;;;;;;;0.70;0.50;;;16.20;99.90;;;;;;5068315;28;20435;-74
2021/05/19 12:24:36;;;;;;;0.70;0.50;;;16.20;99.90;;;;;;5066556;28;20401;-74
2021/05/19 12:27:03;;;;;;;0.70;0.50;;;15.90;99.90;;;;;;5060278;28;20451;-74
2021/05/19 12:29:33;;;;;;;0.70;0.50;;;15.80;99.90;;;;;;5035290;28;20542;-74
2021/05/19 12:32:08;;;;;;;0.70;0.50;;;15.90;99.90;;;;;;5053477;28;20402;-74
2021/05/19 12:34:34;;;;;;;0.70;0.50;;;16.10;99.90;;;;;;5064714;28;20418;-74
2021/05/19 12:37:00;;;;;;;0.70;0.50;;;16.20;99.90;;;;;;5064577;28;20458;-75
2021/05/19 12:39:28;;;;;;;0.70;0.50;;;15.90;99.90;;;;;;5052845;28;20898;-74
2021/05/19 12:41:56;;;;;;;0.70;0.50;;;16.00;99.90;;;;;;5061557;28;20558;-74
2021/05/19 12:44:27;;;;;;;0.70;0.50;;;15.80;99.90;;;;;;5072875;28;20466;-74
2021/05/19 12:47:13;;;;;;;0.70;0.50;;;15.90;99.90;;;;;;5071249;28;20834;-75
2021/05/19 12:49:41;;;;;;;0.70;0.50;;;16.20;99.90;;;;;;5072394;28;20614;-74
2021/05/19 12:52:16;;;;;;;0.70;0.50;;;16.30;99.90;;;;;;5072672;28;20431;-74
2021/05/19 12:54:46;;;;;;;0.70;0.50;;;16.60;99.90;;;;;;5070799;28;20486;-74
2021/05/19 12:57:17;;;;;;;0.70;0.50;;;16.50;99.90;;;;;;5052532;28;20460;-73
2021/05/19 12:59:55;;;;;;;0.70;0.50;;;16.70;99.90;;;;;;5035386;28;20428;-74
2021/05/19 13:02:24;;;;;;;0.70;0.50;;;16.70;99.90;;;;;;5052945;28;20479;-74
2021/05/19 13:04:52;;;;;;;0.70;0.50;;;16.90;99.90;;;;;;5053951;28;20404;-74
2021/05/19 13:07:20;;;;;;;0.70;0.50;;;17.80;99.90;;;;;;5072550;28;20440;-74
2021/05/19 13:09:49;;;;;;;0.80;0.50;;;18.70;99.90;;;;;;5072037;28;20454;-73
2021/05/19 13:12:28;;;;;;;0.77;0.50;;;19.30;99.90;;;;;;5072432;28;20500;-73
2021/05/19 13:14:55;;;;;;;0.70;0.50;;;19.50;99.90;;;;;;5069492;28;20435;-73
2021/05/19 13:18:00;;;;;;;0.70;0.50;;;19.20;99.90;;;;;;5066887;28;20453;-73